Time;durP1;ratioP1;P1;durP2;ratioP2;P2;SDS_P1;SDS_P2;PMS_P1;PMS_P2;Temp;Humidity;BMP_temperature;BMP_pressure;BME280_temperature;BME280_humidity;BME280_pressure;Samples;Min_cycle;Max_cycle;Signal;HPM_P1;HPM_P2
2021/03/19 00:00:17;;;;;;;4.80;3.45;;;;;;;0.87;84.54;99070.03;1651076;87;21230;-69
2021/03/19 00:02:45;;;;;;;5.40;3.90;;;;;;;0.93;84.17;99065.10;1658628;86;21335;-68
2021/03/19 00:05:15;;;;;;;5.45;3.58;;;;;;;0.92;84.16;99070.16;1658823;86;21697;-69
2021/03/19 00:07:52;;;;;;;4.85;3.72;;;;;;;0.82;84.43;99058.34;1696809;83;21121;-69
2021/03/19 00:10:28;;;;;;;5.28;3.62;;;;;;;0.80;84.55;99060.44;1694995;83;21188;-69
2021/03/19 00:13:00;;;;;;;4.78;3.17;;;;;;;0.75;84.56;99059.77;1658704;86;21610;-67
2021/03/19 00:15:29;;;;;;;5.08;3.20;;;;;;;0.75;84.56;99059.77;1700582;83;21153;-68
2021/03/19 00:17:58;;;;;;;4.70;3.40;;;;;;;0.73;84.76;99054.34;1722840;83;21209;-68
2021/03/19 00:20:29;;;;;;;5.78;3.95;;;;;;;0.83;84.38;99050.61;1722495;82;21585;-68
2021/03/19 00:22:56;;;;;;;5.75;3.90;;;;;;;0.79;84.54;99052.09;1722921;83;22063;-68
2021/03/19 00:25:26;;;;;;;5.37;3.98;;;;;;;0.70;84.89;99046.24;1721370;82;21577;-68
2021/03/19 00:27:55;;;;;;;5.65;3.92;;;;;;;0.75;84.66;99053.06;1722940;83;21728;-69
2021/03/19 00:30:23;;;;;;;7.37;4.30;;;;;;;0.80;84.52;99049.20;1722996;82;21591;-68
2021/03/19 00:32:50;;;;;;;5.55;3.90;;;;;;;0.76;84.61;99052.55;1722883;83;21180;-68
2021/03/19 00:35:19;;;;;;;5.15;3.52;;;;;;;0.67;84.89;99049.38;1708015;82;21165;-68
2021/03/19 00:37:46;;;;;;;6.50;4.62;;;;;;;0.76;84.65;99047.19;1694010;85;21187;-68
2021/03/19 00:40:16;;;;;;;4.87;3.33;;;;;;;0.78;84.56;99050.48;1658119;86;21170;-68
2021/03/19 00:42:43;;;;;;;5.60;4.30;;;;;;;0.71;84.71;99049.74;1694137;85;21759;-67
2021/03/19 00:45:14;;;;;;;5.80;3.90;;;;;;;0.75;84.67;99053.06;1670189;85;21215;-67
2021/03/19 00:47:43;;;;;;;6.08;3.40;;;;;;;0.79;84.37;99054.26;1693498;83;21196;-67
2021/03/19 00:50:14;;;;;;;4.97;3.42;;;;;;;0.74;84.48;99048.77;1658324;86;21649;-67
2021/03/19 00:52:41;;;;;;;5.58;3.58;;;;;;;0.70;84.59;99054.28;1694157;85;21259;-67
2021/03/19 00:55:12;;;;;;;5.05;3.40;;;;;;;0.71;84.49;99053.77;1717448;83;21168;-67
2021/03/19 00:57:39;;;;;;;4.40;3.27;;;;;;;0.69;84.53;99053.97;1722811;83;21339;-67
2021/03/19 01:00:09;;;;;;;4.40;3.10;;;;;;;0.65;84.63;99054.13;1722994;82;21177;-69
2021/03/19 01:02:37;;;;;;;4.80;3.42;;;;;;;0.70;84.39;99054.80;1722996;83;21177;-67
2021/03/19 01:05:13;;;;;;;4.95;3.20;;;;;;;0.76;84.11;99059.25;1720573;82;21202;-68
2021/03/19 01:07:41;;;;;;;4.30;3.33;;;;;;;0.66;84.35;99051.75;1716391;83;21559;-68
2021/03/19 01:10:12;;;;;;;4.65;3.22;;;;;;;0.58;84.54;99051.22;1722603;82;21363;-68
2021/03/19 01:12:39;;;;;;;4.72;3.40;;;;;;;0.62;84.42;99054.57;1722980;83;21201;-68
2021/03/19 01:15:10;;;;;;;6.12;3.22;;;;;;;0.66;84.23;99056.28;1720903;82;21189;-69
2021/03/19 01:17:37;;;;;;;4.35;3.10;;;;;;;0.55;84.36;99047.14;1720740;83;21700;-68
2021/03/19 01:20:11;;;;;;;4.40;3.00;;;;;;;0.61;84.28;99050.25;1722913;82;21223;-68
2021/03/19 01:22:39;;;;;;;5.05;3.40;;;;;;;0.71;83.93;99045.73;1722817;83;21193;-69
2021/03/19 01:25:17;;;;;;;4.22;3.17;;;;;;;0.62;84.01;99041.70;1697631;83;21202;-69
2021/03/19 01:27:44;;;;;;;4.95;3.67;;;;;;;0.55;84.27;99054.35;1658382;86;21174;-69
2021/03/19 01:30:16;;;;;;;5.20;3.50;;;;;;;0.63;84.19;99060.75;1693990;85;21161;-69
2021/03/19 01:32:45;;;;;;;4.70;2.95;;;;;;;0.70;83.99;99052.94;1693972;85;21335;-68
2021/03/19 01:35:14;;;;;;;4.78;3.42;;;;;;;0.64;84.13;99053.02;1656067;86;21215;-68
2021/03/19 01:37:43;;;;;;;5.22;3.60;;;;;;;0.58;84.34;99054.72;1694346;83;21302;-68
2021/03/19 01:40:13;;;;;;;4.78;3.42;;;;;;;0.58;84.29;99053.38;1693950;85;21227;-69
2021/03/19 01:42:53;;;;;;;5.65;3.33;;;;;;;0.69;83.94;99055.83;1699943;83;21310;-67
2021/03/19 01:46:18;;;;;;;4.78;3.62;;;;;;;0.64;84.05;99051.69;1722796;82;21189;-69
2021/03/19 01:49:42;;;;;;;5.20;3.75;;;;;;;0.56;84.27;99060.02;1649354;87;21218;-68
2021/03/19 01:53:06;;;;;;;4.67;3.60;;;;;;;0.62;84.04;99063.95;1645201;87;21687;-68
2021/03/19 01:56:32;;;;;;;5.28;3.60;;;;;;;0.54;84.02;99062.08;1619487;87;21898;-70
2021/03/19 01:59:57;;;;;;;5.95;4.40;;;;;;;0.56;83.87;99061.34;1645083;87;21206;-68
2021/03/19 02:03:21;;;;;;;5.58;3.90;;;;;;;0.53;84.08;99064.48;1645021;87;21210;-67
2021/03/19 02:06:46;;;;;;;5.45;3.80;;;;;;;0.39;84.40;99059.80;1645011;87;21194;-67
2021/03/19 02:10:10;;;;;;;6.30;4.40;;;;;;;0.52;84.17;99064.17;1645087;87;21198;-69
2021/03/19 02:13:34;;;;;;;5.80;4.17;;;;;;;0.43;84.38;99067.66;1644975;87;21206;-68
2021/03/19 02:16:58;;;;;;;5.87;3.62;;;;;;;0.38;84.68;99075.55;1645281;87;21182;-68
2021/03/19 02:20:25;;;;;;;5.55;4.15;;;;;;;0.46;84.34;99071.25;1645136;87;21457;-69
2021/03/19 02:23:49;;;;;;;6.10;4.17;;;;;;;0.39;84.50;99074.52;1644784;87;21343;-68
2021/03/19 02:27:13;;;;;;;6.00;4.60;;;;;;;0.40;84.51;99075.62;1645052;87;21257;-66
2021/03/19 02:30:37;;;;;;;6.35;4.70;;;;;;;0.40;84.62;99074.80;1645062;87;21273;-70
2021/03/19 02:33:04;;;;;;;5.35;3.87;;;;;;;0.30;85.04;99072.64;1645217;87;21621;-68
2021/03/19 02:35:32;;;;;;;6.65;4.40;;;;;;;0.40;84.72;99086.33;1644915;86;21194;-68
2021/03/19 02:38:02;;;;;;;6.65;4.67;;;;;;;0.42;84.64;99079.43;1578148;87;21206;-68
2021/03/19 02:40:29;;;;;;;5.67;4.25;;;;;;;0.34;84.92;99081.05;1645194;87;21687;-67
2021/03/19 02:42:57;;;;;;;7.03;4.00;;;;;;;0.40;84.74;99086.33;1644993;87;21649;-68
2021/03/19 02:45:24;;;;;;;5.90;4.53;;;;;;;0.46;84.56;99077.40;1645117;87;21256;-68
2021/03/19 02:47:52;;;;;;;6.72;4.92;;;;;;;0.43;84.69;99084.55;1642161;86;21193;-68
2021/03/19 02:50:20;;;;;;;5.72;4.22;;;;;;;0.41;84.67;99086.64;1639709;87;21205;-68
2021/03/19 02:52:47;;;;;;;5.70;4.67;;;;;;;0.50;84.33;99089.83;1639727;87;21342;-68
2021/03/19 02:55:17;;;;;;;7.20;5.45;;;;;;;0.50;84.25;99083.95;1639632;87;21212;-68
2021/03/19 02:57:44;;;;;;;6.12;4.72;;;;;;;0.43;84.59;99095.25;1639647;87;21224;-68
2021/03/19 03:00:18;;;;;;;6.92;5.08;;;;;;;0.41;84.69;99094.67;1639807;87;21580;-67
2021/03/19 03:02:45;;;;;;;5.17;4.10;;;;;;;0.50;84.37;99095.18;1639529;87;21262;-68
2021/03/19 03:05:16;;;;;;;6.40;4.83;;;;;;;0.54;84.29;99104.92;1639809;87;21327;-69
2021/03/19 03:07:43;;;;;;;5.83;4.75;;;;;;;0.47;84.51;99100.47;1639689;87;21240;-69
2021/03/19 03:10:14;;;;;;;5.17;3.95;;;;;;;0.53;84.38;99103.31;1639528;87;21172;-69
2021/03/19 03:12:42;;;;;;;6.28;5.05;;;;;;;0.64;84.06;99110.06;1639769;87;21233;-69
2021/03/19 03:15:13;;;;;;;6.92;5.42;;;;;;;0.59;84.20;99105.91;1639882;87;21201;-69
2021/03/19 03:17:41;;;;;;;6.25;4.83;;;;;;;0.53;84.28;99106.81;1639887;87;21161;-68
2021/03/19 03:20:13;;;;;;;6.58;4.45;;;;;;;0.55;84.20;99107.40;1639540;87;21221;-69
2021/03/19 03:22:41;;;;;;;6.45;5.05;;;;;;;0.60;84.00;99110.76;1639426;87;21295;-69
2021/03/19 03:25:13;;;;;;;7.90;5.28;;;;;;;0.52;84.14;99115.88;1639617;87;21638;-69
2021/03/19 03:27:41;;;;;;;6.83;5.28;;;;;;;0.45;84.28;99117.30;1639782;87;21612;-70
2021/03/19 03:30:15;;;;;;;5.15;4.28;;;;;;;0.49;84.07;99117.16;1639752;87;21270;-69
2021/03/19 03:32:43;;;;;;;5.97;4.97;;;;;;;0.58;83.76;99112.82;1608074;89;21720;-69
2021/03/19 03:35:12;;;;;;;5.97;4.65;;;;;;;0.56;83.91;99119.76;1608694;89;21716;-69
2021/03/19 03:37:39;;;;;;;7.12;5.10;;;;;;;0.48;84.11;99106.13;1603639;89;21224;-69
2021/03/19 03:40:10;;;;;;;6.65;4.95;;;;;;;0.49;84.08;99115.81;1603706;89;21201;-70
2021/03/19 03:42:37;;;;;;;6.92;5.30;;;;;;;0.66;83.84;99119.23;1603669;89;21192;-69
2021/03/19 03:45:07;;;;;;;7.20;5.35;;;;;;;0.57;83.73;99112.00;1578220;89;21621;-70
2021/03/19 03:47:35;;;;;;;6.70;5.20;;;;;;;0.52;83.85;99116.40;1604826;88;21200;-69
2021/03/19 03:50:11;;;;;;;6.62;4.87;;;;;;;0.58;83.64;99115.50;1607618;89;21188;-69
2021/03/19 03:52:39;;;;;;;6.65;5.37;;;;;;;0.56;83.59;99114.41;1607721;88;21184;-68
2021/03/19 03:55:09;;;;;;;6.65;5.25;;;;;;;0.45;83.75;99109.77;1605601;89;21565;-69
2021/03/19 03:57:37;;;;;;;7.65;5.47;;;;;;;0.39;83.73;99110.13;1605625;89;21604;-70
2021/03/19 04:00:09;;;;;;;6.87;5.40;;;;;;;0.42;83.50;99109.70;1639600;87;21231;-69
2021/03/19 04:02:37;;;;;;;7.55;6.08;;;;;;;0.41;83.56;99113.42;1639654;87;21605;-69
2021/03/19 04:05:07;;;;;;;7.78;6.00;;;;;;;0.34;83.80;99121.21;1639627;87;21177;-69
2021/03/19 04:07:37;;;;;;;7.90;6.12;;;;;;;0.31;83.74;99119.80;1639530;87;21340;-68
2021/03/19 04:10:06;;;;;;;7.35;6.10;;;;;;;0.33;83.53;99119.56;1639574;87;21668;-67
2021/03/19 04:12:34;;;;;;;7.70;6.15;;;;;;;0.33;83.43;99119.05;1639505;87;21241;-68
2021/03/19 04:15:05;;;;;;;7.55;5.72;;;;;;;0.31;83.61;99116.30;1639636;87;21265;-68
2021/03/19 04:17:33;;;;;;;7.95;6.47;;;;;;;0.26;83.83;99114.28;1639727;87;21635;-68
2021/03/19 04:20:01;;;;;;;8.45;6.35;;;;;;;0.27;83.74;99121.79;1639655;87;21213;-68
2021/03/19 04:22:29;;;;;;;7.60;5.72;;;;;;;0.35;83.51;99122.86;1639539;87;21347;-67
2021/03/19 04:24:56;;;;;;;8.40;6.12;;;;;;;0.36;83.51;99118.60;1639590;87;21177;-68
2021/03/19 04:27:28;;;;;;;8.60;6.45;;;;;;;0.30;83.55;99119.49;1614622;89;21189;-68
2021/03/19 04:29:57;;;;;;;8.23;6.22;;;;;;;0.33;83.47;99124.92;1585139;90;21219;-68
2021/03/19 04:32:25;;;;;;;9.70;6.95;;;;;;;0.33;83.35;99120.39;1614513;89;21611;-68
2021/03/19 04:34:53;;;;;;;8.80;6.40;;;;;;;0.25;83.48;99124.67;1639460;87;21225;-69
2021/03/19 04:37:22;;;;;;;7.53;6.10;;;;;;;0.20;83.76;99125.88;1639701;87;21668;-70
2021/03/19 04:39:49;;;;;;;9.38;7.15;;;;;;;0.27;83.51;99132.50;1639428;87;21205;-70
2021/03/19 04:42:17;;;;;;;9.55;7.42;;;;;;;0.31;83.29;99125.16;1639569;85;21233;-69
2021/03/19 04:44:46;;;;;;;9.63;7.03;;;;;;;0.29;83.43;99125.05;1639486;87;21370;-70
2021/03/19 04:47:14;;;;;;;12.25;7.25;;;;;;;0.21;83.53;99126.70;1639584;86;21205;-70
2021/03/19 04:49:42;;;;;;;9.83;7.15;;;;;;;0.23;83.43;99128.11;1639804;87;21181;-70
2021/03/19 04:52:09;;;;;;;9.05;6.95;;;;;;;0.28;83.30;99130.13;1614048;87;21641;-69
2021/03/19 04:54:37;;;;;;;11.12;7.85;;;;;;;0.23;83.43;99129.95;1639766;87;21490;-69
2021/03/19 04:57:05;;;;;;;9.23;6.95;;;;;;;0.19;83.50;99130.92;1639841;87;21617;-69
2021/03/19 04:59:32;;;;;;;10.48;7.50;;;;;;;0.18;83.49;99131.16;1642535;87;21201;-68
2021/03/19 05:02:00;;;;;;;8.98;6.50;;;;;;;0.26;83.24;99129.00;1642763;87;21237;-69
2021/03/19 05:04:28;;;;;;;9.83;7.47;;;;;;;0.21;83.34;99117.33;1643129;87;21173;-68
2021/03/19 05:07:04;;;;;;;8.88;6.85;;;;;;;0.18;83.40;99121.23;1641658;87;21209;-68
2021/03/19 05:09:32;;;;;;;9.05;6.65;;;;;;;0.27;83.18;99125.80;1639737;87;21231;-68
2021/03/19 05:12:00;;;;;;;10.65;7.85;;;;;;;0.25;83.05;99125.22;1639831;87;21209;-68
2021/03/19 05:14:28;;;;;;;9.05;7.45;;;;;;;0.20;83.25;99125.05;1639692;87;21201;-69
2021/03/19 05:16:55;;;;;;;9.70;6.33;;;;;;;0.22;83.06;99135.00;1639670;87;21208;-67
2021/03/19 05:19:24;;;;;;;11.48;7.75;;;;;;;0.35;82.84;99129.55;1639729;87;21408;-68
2021/03/19 05:21:52;;;;;;;12.55;7.72;;;;;;;0.36;82.94;99132.50;1639946;87;21221;-68
2021/03/19 05:24:20;;;;;;;11.08;7.35;;;;;;;0.35;83.05;99140.26;1640047;87;21230;-69
2021/03/19 05:26:48;;;;;;;8.88;6.40;;;;;;;0.32;82.82;99131.33;1639616;87;21176;-69
2021/03/19 05:29:16;;;;;;;10.60;7.58;;;;;;;0.36;82.56;99134.67;1639812;87;21173;-69
2021/03/19 05:31:44;;;;;;;9.98;7.70;;;;;;;0.36;82.59;99137.34;1639755;87;21326;-69
2021/03/19 05:34:13;;;;;;;11.73;7.75;;;;;;;0.32;82.80;99134.80;1639761;87;21240;-69
2021/03/19 05:36:41;;;;;;;9.73;7.62;;;;;;;0.27;82.75;99142.70;1639876;87;21356;-68
2021/03/19 05:41:43;;;;;;;9.98;6.85;;;;;;;0.36;82.43;99145.38;1822838;77;23430;-68
2021/03/19 05:44:19;;;;;;;8.90;6.35;;;;;;;0.27;82.72;99153.41;1758132;81;21222;-70
2021/03/19 05:46:52;;;;;;;8.73;6.87;;;;;;;0.20;82.77;99150.48;1731935;82;21200;-69
2021/03/19 05:49:26;;;;;;;9.40;6.72;;;;;;;0.16;82.85;99159.98;1707079;83;21177;-68
2021/03/19 05:51:56;;;;;;;7.45;5.83;;;;;;;0.19;82.56;99156.86;1716600;83;21675;-69
2021/03/19 05:54:42;;;;;;;9.63;6.53;;;;;;;0.18;82.46;99165.41;1710532;82;21207;-69
2021/03/19 05:57:30;;;;;;;9.45;6.15;;;;;;;0.09;82.66;99162.72;1739143;82;21132;-69
2021/03/19 06:00:00;;;;;;;7.55;5.87;;;;;;;0.13;82.69;99158.56;1738770;82;21167;-71
2021/03/19 06:02:39;;;;;;;8.60;5.53;;;;;;;0.22;82.52;99166.61;1738766;82;21171;-69
2021/03/19 06:05:24;;;;;;;9.43;6.03;;;;;;;0.17;82.65;99171.82;1736607;82;21189;-69
2021/03/19 06:07:58;;;;;;;9.20;6.20;;;;;;;0.15;82.70;99171.20;1738666;82;21917;-68
2021/03/19 06:10:36;;;;;;;7.33;5.72;;;;;;;0.26;82.26;99173.17;1738877;82;21196;-69
2021/03/19 06:13:25;;;;;;;8.65;6.12;;;;;;;0.25;82.29;99181.44;1738872;82;21172;-69
2021/03/19 06:16:16;;;;;;;8.38;6.28;;;;;;;0.18;82.52;99180.67;1709378;84;21584;-69
2021/03/19 06:18:48;;;;;;;8.43;6.10;;;;;;;0.20;82.42;99186.61;1709507;84;21187;-69
2021/03/19 06:21:35;;;;;;;8.18;6.33;;;;;;;0.27;82.15;99184.19;1709314;84;21212;-70
2021/03/19 06:24:23;;;;;;;9.63;6.72;;;;;;;0.09;82.29;99155.20;1711238;82;21199;-71
2021/03/19 06:26:53;;;;;;;8.45;6.17;;;;;;;0.24;82.46;99185.14;1709697;82;21167;-69
2021/03/19 06:29:28;;;;;;;9.53;6.55;;;;;;;0.40;82.18;99191.27;1709399;83;21179;-69
2021/03/19 06:32:19;;;;;;;9.08;6.62;;;;;;;0.46;81.96;99185.06;1709494;84;21192;-68
2021/03/19 06:35:14;;;;;;;8.68;6.28;;;;;;;0.44;81.99;99193.30;1736521;82;21170;-68
2021/03/19 06:37:47;;;;;;;8.33;6.10;;;;;;;0.44;81.75;99192.48;1738345;82;21128;-68
2021/03/19 06:40:36;;;;;;;7.28;5.40;;;;;;;0.58;81.33;99190.49;1736253;82;21203;-69
2021/03/19 06:43:26;;;;;;;8.88;5.70;;;;;;;0.64;81.00;99191.77;1728439;83;21135;-69
2021/03/19 06:46:22;;;;;;;8.05;5.95;;;;;;;0.60;80.73;99192.45;1700725;84;21222;-68
2021/03/19 06:49:00;;;;;;;7.28;4.80;;;;;;;0.66;80.54;99190.22;1676620;83;21661;-69
2021/03/19 06:51:43;;;;;;;8.60;6.33;;;;;;;0.76;80.37;99201.24;1700753;84;21598;-69
2021/03/19 06:54:23;;;;;;;9.55;6.37;;;;;;;0.75;80.87;99196.40;1702069;83;21178;-68
2021/03/19 06:57:05;;;;;;;7.78;5.97;;;;;;;0.72;80.66;99196.84;1700152;83;21170;-70
2021/03/19 06:59:55;;;;;;;7.22;5.03;;;;;;;0.82;80.36;99205.19;1699951;84;21220;-70
2021/03/19 07:02:58;;;;;;;8.45;5.58;;;;;;;0.85;79.89;99203.95;1716992;83;21174;-68
2021/03/19 07:06:20;;;;;;;8.98;6.22;;;;;;;0.78;80.10;99206.67;1729330;83;21608;-69
2021/03/19 07:09:06;;;;;;;8.60;6.58;;;;;;;0.81;80.15;99208.11;1654149;85;21214;-67
2021/03/19 07:12:25;;;;;;;10.68;7.15;;;;;;;0.86;79.68;99206.39;1653771;86;21366;-70
2021/03/19 07:14:58;;;;;;;7.33;5.10;;;;;;;0.77;79.72;99224.32;1639485;86;21188;-68
2021/03/19 07:17:57;;;;;;;9.73;6.70;;;;;;;0.76;80.19;99219.48;1652486;86;21719;-69
2021/03/19 07:21:05;;;;;;;10.05;7.53;;;;;;;0.95;79.96;99214.45;1656153;85;21195;-69
2021/03/19 07:24:06;;;;;;;9.30;6.95;;;;;;;0.99;79.51;99209.47;1681340;85;21217;-68
2021/03/19 07:26:37;;;;;;;8.30;5.85;;;;;;;0.95;79.69;99210.44;1681108;85;21651;-68
2021/03/19 07:29:37;;;;;;;9.20;6.67;;;;;;;0.98;79.24;99215.34;1681392;85;21241;-69
2021/03/19 07:32:32;;;;;;;9.63;6.60;;;;;;;0.94;78.98;99216.00;1678984;85;21180;-69
2021/03/19 07:35:16;;;;;;;8.13;6.53;;;;;;;0.93;79.43;99217.03;1681277;85;21218;-69
2021/03/19 07:38:31;;;;;;;8.75;6.58;;;;;;;0.95;79.79;99217.65;1681602;85;21320;-68
2021/03/19 07:41:27;;;;;;;8.88;6.80;;;;;;;1.13;79.14;99220.86;1661061;85;21216;-68
2021/03/19 07:44:40;;;;;;;8.28;5.92;;;;;;;1.11;78.58;99221.07;1655638;84;21184;-68
2021/03/19 07:47:25;;;;;;;7.92;5.42;;;;;;;1.14;78.43;99231.86;1668536;85;21252;-68
2021/03/19 07:50:20;;;;;;;9.08;6.28;;;;;;;1.17;78.86;99225.53;1691625;85;21736;-68
2021/03/19 07:53:32;;;;;;;8.28;6.30;;;;;;;1.16;79.23;99227.94;1639093;87;21181;-69
2021/03/19 07:56:29;;;;;;;9.65;6.42;;;;;;;1.33;79.13;99226.29;1664313;85;21627;-70
2021/03/19 08:02:17;;;;;;;7.10;5.72;;;;;;;1.63;78.28;99227.65;1764174;79;22930;-67
2021/03/19 08:05:23;;;;;;;8.63;6.20;;;;;;;1.74;77.33;99224.72;1703613;83;21145;-69
2021/03/19 08:08:12;;;;;;;8.55;5.67;;;;;;;1.71;78.36;99226.52;1651125;87;21181;-70
2021/03/19 08:11:00;;;;;;;8.03;5.15;;;;;;;1.97;77.99;99228.33;1674074;85;21211;-70
2021/03/19 08:13:51;;;;;;;7.45;5.28;;;;;;;2.24;77.36;99220.69;1684071;85;21202;-70
2021/03/19 08:16:34;;;;;;;6.25;4.40;;;;;;;2.31;75.67;99224.09;1683966;85;21396;-70
2021/03/19 08:19:28;;;;;;;5.47;4.22;;;;;;;2.37;75.40;99227.19;1683856;85;21190;-67
2021/03/19 08:22:18;;;;;;;6.65;4.67;;;;;;;2.56;74.76;99216.35;1676654;85;21165;-68
2021/03/19 08:25:03;;;;;;;6.03;4.12;;;;;;;2.80;73.30;99224.19;1678038;85;21192;-72
2021/03/19 08:27:45;;;;;;;6.60;4.80;;;;;;;2.87;73.81;99217.38;1678283;85;21177;-69
2021/03/19 08:30:40;;;;;;;5.67;3.95;;;;;;;2.79;72.81;99219.89;1655628;85;21380;-68
2021/03/19 08:33:32;;;;;;;6.05;3.80;;;;;;;2.85;71.36;99215.44;1651171;86;21196;-70
2021/03/19 08:36:29;;;;;;;6.78;3.90;;;;;;;2.95;72.30;99212.45;1656108;86;21208;-69
2021/03/19 08:39:05;;;;;;;6.08;4.42;;;;;;;2.93;70.50;99219.95;1624975;87;21171;-70
2021/03/19 08:41:38;;;;;;;5.33;3.87;;;;;;;2.87;72.15;99224.10;1650775;87;21192;-69
2021/03/19 08:44:07;;;;;;;5.33;4.08;;;;;;;2.98;72.23;99218.70;1650975;86;21173;-68
2021/03/19 08:46:52;;;;;;;5.70;4.37;;;;;;;3.01;71.50;99226.28;1650892;87;21197;-69
2021/03/19 08:49:35;;;;;;;5.75;4.03;;;;;;;2.89;71.67;99229.52;1651012;85;21216;-69
2021/03/19 08:52:34;;;;;;;6.47;4.50;;;;;;;2.71;71.57;99230.98;1651233;87;21674;-69
2021/03/19 08:55:22;;;;;;;5.72;3.80;;;;;;;2.60;72.36;99230.96;1656313;86;21224;-69
2021/03/19 08:57:56;;;;;;;5.97;3.92;;;;;;;2.65;72.19;99232.44;1624433;87;21167;-69
2021/03/19 09:00:34;;;;;;;4.78;3.40;;;;;;;2.57;72.67;99236.80;1645577;86;21351;-68
2021/03/19 09:03:07;;;;;;;4.87;3.87;;;;;;;2.55;71.80;99234.89;1636746;88;21222;-69
2021/03/19 09:05:37;;;;;;;5.10;3.33;;;;;;;2.48;70.93;99239.83;1634499;88;21194;-70
2021/03/19 09:08:14;;;;;;;4.92;3.30;;;;;;;2.49;71.24;99237.96;1657617;86;21160;-71
2021/03/19 09:10:53;;;;;;;5.28;3.50;;;;;;;2.57;70.80;99235.46;1662454;86;21199;-71
2021/03/19 09:13:23;;;;;;;4.50;3.42;;;;;;;2.58;71.65;99231.73;1663379;86;21581;-71
2021/03/19 09:15:54;;;;;;;4.60;3.40;;;;;;;2.59;71.86;99236.86;1663341;86;21636;-70
2021/03/19 09:18:44;;;;;;;5.47;3.65;;;;;;;2.71;71.29;99240.91;1661198;86;21173;-69
2021/03/19 09:21:30;;;;;;;5.67;4.10;;;;;;;2.69;70.40;99241.68;1663038;86;21177;-70
2021/03/19 09:24:15;;;;;;;4.45;3.20;;;;;;;2.63;71.34;99241.24;1658810;86;21178;-71
2021/03/19 09:26:51;;;;;;;9.78;6.72;;;;;;;2.61;70.45;99245.52;1648290;86;21235;-69
2021/03/19 09:29:26;;;;;;;12.65;9.70;;;;;;;2.58;70.81;99238.45;1636157;87;21747;-71
2021/03/19 09:31:58;;;;;;;7.67;5.67;;;;;;;2.70;70.69;99237.39;1681117;85;21359;-71
2021/03/19 09:34:53;;;;;;;5.95;4.62;;;;;;;2.77;70.62;99235.94;1648027;86;21670;-69
2021/03/19 09:37:42;;;;;;;6.47;4.85;;;;;;;2.76;70.05;99238.35;1634636;88;21700;-71
2021/03/19 09:40:15;;;;;;;6.50;4.53;;;;;;;2.66;70.73;99244.84;1681171;84;21219;-70
2021/03/19 09:42:50;;;;;;;6.50;4.37;;;;;;;2.72;70.15;99243.89;1626661;87;21161;-70
2021/03/19 09:45:23;;;;;;;6.60;4.90;;;;;;;2.85;70.52;99246.34;1656651;85;21230;-71
2021/03/19 09:47:55;;;;;;;6.12;4.95;;;;;;;2.89;71.38;99247.52;1675245;85;21687;-70
2021/03/19 09:50:33;;;;;;;7.42;4.90;;;;;;;3.05;70.46;99244.66;1670532;86;21615;-71
2021/03/19 09:53:17;;;;;;;7.20;4.60;;;;;;;3.19;69.72;99240.67;1670764;86;21194;-69
2021/03/19 09:55:47;;;;;;;5.40;3.85;;;;;;;3.42;69.69;99250.04;1668802;85;21245;-68
2021/03/19 09:58:52;;;;;;;6.03;4.58;;;;;;;3.63;67.90;99245.89;1670392;85;21189;-69
2021/03/19 10:01:44;;;;;;;6.35;4.03;;;;;;;3.55;67.17;99252.45;1673926;84;21185;-70
2021/03/19 10:04:29;;;;;;;6.75;4.35;;;;;;;3.43;68.28;99247.13;1679345;85;21329;-70
2021/03/19 10:06:56;;;;;;;6.08;4.20;;;;;;;3.60;69.09;99241.81;1647953;87;21194;-70
2021/03/19 10:09:30;;;;;;;5.40;4.22;;;;;;;3.76;67.65;99252.33;1657692;86;21226;-70
2021/03/19 10:12:06;;;;;;;6.80;4.40;;;;;;;3.77;66.61;99241.34;1632459;86;21668;-70
2021/03/19 10:14:37;;;;;;;6.03;4.50;;;;;;;3.84;66.09;99243.89;1661352;85;21665;-71
2021/03/19 10:17:13;;;;;;;9.38;6.35;;;;;;;3.91;65.59;99240.52;1675990;85;21197;-70
2021/03/19 10:19:46;;;;;;;8.15;5.37;;;;;;;3.84;65.28;99256.00;1685561;85;21531;-71
2021/03/19 10:22:36;;;;;;;6.78;4.97;;;;;;;3.78;65.79;99254.28;1676271;85;21569;-71
2021/03/19 10:25:19;;;;;;;5.37;3.70;;;;;;;3.85;65.04;99253.61;1685535;85;21600;-70
2021/03/19 10:27:52;;;;;;;4.87;3.90;;;;;;;3.95;63.58;99252.45;1647987;85;21738;-71
2021/03/19 10:30:26;;;;;;;6.17;4.20;;;;;;;4.14;63.33;99253.08;1685365;85;21188;-71
2021/03/19 10:32:53;;;;;;;6.35;4.58;;;;;;;4.29;62.05;99253.33;1675989;85;21189;-71
2021/03/19 10:35:27;;;;;;;15.32;8.30;;;;;;;4.37;62.32;99251.07;1657949;85;21204;-69
2021/03/19 10:38:12;;;;;;;10.43;6.92;;;;;;;4.37;60.83;99252.94;1648779;85;21208;-71
2021/03/19 10:40:40;;;;;;;9.53;6.65;;;;;;;4.24;60.68;99249.22;1620696;87;21217;-71
2021/03/19 10:43:34;;;;;;;8.20;5.62;;;;;;;4.08;60.71;99251.33;1649616;85;21150;-71
2021/03/19 10:46:19;;;;;;;16.15;11.08;;;;;;;4.04;61.53;99248.30;1619907;87;21229;-70
2021/03/19 10:49:00;;;;;;;13.62;8.05;;;;;;;4.15;61.14;99246.09;1645565;87;21235;-70
2021/03/19 10:51:46;;;;;;;7.42;5.20;;;;;;;4.20;59.60;99244.02;1645939;87;21197;-69
2021/03/19 10:54:33;;;;;;;7.20;4.75;;;;;;;4.34;59.54;99235.92;1647411;86;21628;-69
2021/03/19 10:57:27;;;;;;;5.42;3.80;;;;;;;4.57;57.43;99233.62;1646054;86;21226;-70
2021/03/19 10:59:55;;;;;;;11.12;7.65;;;;;;;4.47;58.37;99230.20;1646051;86;21224;-70
2021/03/19 11:02:29;;;;;;;8.83;5.40;;;;;;;4.48;56.72;99231.32;1644787;86;22119;-72
2021/03/19 11:05:03;;;;;;;6.05;4.03;;;;;;;4.53;56.16;99228.42;1686093;84;21675;-70
2021/03/19 11:07:41;;;;;;;6.33;4.58;;;;;;;4.50;55.83;99228.36;1685955;85;21661;-70
2021/03/19 11:10:24;;;;;;;4.65;3.50;;;;;;;4.47;55.52;99231.55;1685992;85;21192;-70
2021/03/19 11:13:00;;;;;;;4.70;3.08;;;;;;;4.59;56.06;99238.22;1684096;84;21171;-71
2021/03/19 11:15:34;;;;;;;4.45;3.12;;;;;;;4.78;54.25;99233.67;1682372;85;21168;-72
2021/03/19 11:18:27;;;;;;;5.42;3.50;;;;;;;4.91;54.08;99232.53;1643655;87;21655;-71
2021/03/19 11:21:09;;;;;;;4.75;3.50;;;;;;;5.07;53.93;99226.28;1653954;86;21179;-70
2021/03/19 11:23:46;;;;;;;5.37;3.10;;;;;;;5.25;53.52;99231.39;1673150;85;21202;-68
2021/03/19 11:26:27;;;;;;;4.53;3.15;;;;;;;5.36;51.62;99232.34;1642832;86;21205;-69
2021/03/19 11:29:16;;;;;;;4.40;3.25;;;;;;;5.30;53.19;99201.78;1672740;85;21216;-70
2021/03/19 11:31:58;;;;;;;5.30;2.90;;;;;;;5.58;53.77;99231.01;1682098;84;21212;-71
2021/03/19 11:34:34;;;;;;;3.83;2.52;;;;;;;5.57;50.59;99230.72;1714428;84;21176;-71
2021/03/19 11:37:24;;;;;;;3.58;2.30;;;;;;;5.41;48.33;99222.45;1714826;84;21223;-71
2021/03/19 11:40:26;;;;;;;4.15;2.50;;;;;;;5.29;49.79;99229.02;1702563;84;21200;-71
2021/03/19 11:42:59;;;;;;;3.47;2.27;;;;;;;5.15;50.79;99224.52;1686039;84;21191;-72
2021/03/19 11:45:36;;;;;;;4.20;2.35;;;;;;;5.14;51.01;99220.70;1643777;87;21221;-71
2021/03/19 11:48:23;;;;;;;2.87;1.95;;;;;;;5.23;49.65;99221.92;1644011;87;21757;-69
2021/03/19 11:51:12;;;;;;;3.60;2.02;;;;;;;5.38;49.05;99221.60;1617678;87;21223;-71
2021/03/19 11:53:41;;;;;;;3.00;1.90;;;;;;;5.50;47.03;99216.87;1670195;85;21187;-71
2021/03/19 11:56:11;;;;;;;3.80;2.10;;;;;;;5.46;46.01;99221.14;1642420;87;21195;-71
2021/03/19 11:58:39;;;;;;;3.15;2.00;;;;;;;5.51;47.75;99215.82;1626442;87;21241;-72
2021/03/19 12:01:07;;;;;;;3.27;2.50;;;;;;;5.66;46.98;99217.07;1718469;83;21167;-71
2021/03/19 12:03:45;;;;;;;2.90;1.90;;;;;;;5.76;47.48;99213.95;1730795;83;21230;-71
2021/03/19 12:06:16;;;;;;;3.62;2.35;;;;;;;5.80;46.02;99215.61;1730916;83;21794;-72
2021/03/19 12:08:44;;;;;;;3.85;2.58;;;;;;;5.80;46.56;99215.08;1728671;83;21298;-72
2021/03/19 12:11:32;;;;;;;4.47;2.92;;;;;;;5.86;47.65;99214.09;1730042;83;21217;-72
2021/03/19 12:14:01;;;;;;;3.70;2.70;;;;;;;5.86;46.79;99218.14;1704533;83;21311;-71
2021/03/19 12:16:29;;;;;;;5.22;3.52;;;;;;;5.84;47.94;99217.56;1703616;83;21180;-70
2021/03/19 12:18:58;;;;;;;4.33;2.92;;;;;;;5.86;48.82;99218.67;1680436;84;21184;-72
2021/03/19 12:21:26;;;;;;;3.95;1.98;;;;;;;5.90;47.81;99223.33;1642512;86;21211;-72
2021/03/19 12:23:54;;;;;;;2.30;1.40;;;;;;;5.88;42.47;99219.25;1667323;86;21180;-71
2021/03/19 12:26:22;;;;;;;2.75;1.70;;;;;;;5.83;42.52;99217.27;1667521;86;21224;-71
2021/03/19 12:28:50;;;;;;;3.72;2.22;;;;;;;5.86;44.61;99213.27;1681534;84;21163;-72
2021/03/19 12:31:17;;;;;;;4.22;2.60;;;;;;;6.02;43.42;99214.27;1667506;86;21699;-71
2021/03/19 12:33:46;;;;;;;6.50;3.65;;;;;;;6.22;45.84;99215.80;1639049;87;21199;-71
2021/03/19 12:36:14;;;;;;;5.08;3.60;;;;;;;6.34;48.54;99213.20;1641913;86;21818;-72
2021/03/19 12:38:42;;;;;;;5.05;3.12;;;;;;;6.26;46.34;99217.75;1695342;84;21156;-70
2021/03/19 12:41:09;;;;;;;4.55;3.20;;;;;;;6.14;47.46;99214.38;1666121;86;21722;-70